Time;durP1;ratioP1;P1;durP2;ratioP2;P2;SDS_P1;SDS_P2;PMS_P1;PMS_P2;Temp;Humidity;BMP_temperature;BMP_pressure;BME280_temperature;BME280_humidity;BME280_pressure;Samples;Min_cycle;Max_cycle;Signal;HPM_P1;HPM_P2
2023/12/24 00:01:34;;;;;;;;;;;8.80;99.90;;;;;;5097129;27;20369;-84
2023/12/24 00:03:59;;;;;;;;;;;8.90;99.90;;;;;;5128851;27;19966;-80
2023/12/24 00:06:25;;;;;;;;;;;8.90;99.90;;;;;;5098707;27;19931;-80
2023/12/24 00:08:50;;;;;;;;;;;8.90;99.90;;;;;;5105503;27;19970;-85
2023/12/24 00:11:16;;;;;;;;;;;8.90;99.90;;;;;;5106163;27;19979;-84
2023/12/24 00:13:42;;;;;;;;;;;8.90;99.90;;;;;;5115737;27;19931;-80
2023/12/24 00:16:07;;;;;;;;;;;8.90;99.90;;;;;;5111309;27;20579;-80
2023/12/24 00:18:33;;;;;;;;;;;8.90;99.90;;;;;;5112757;27;20338;-82
2023/12/24 00:20:59;;;;;;;;;;;8.90;99.90;;;;;;5108066;27;19928;-81
2023/12/24 00:23:24;;;;;;;;;;;8.90;99.90;;;;;;5111916;27;19923;-85
2023/12/24 00:25:50;;;;;;;;;;;8.90;99.90;;;;;;5090718;27;19927;-82
2023/12/24 00:28:16;;;;;;;;;;;8.80;99.90;;;;;;5092357;27;19966;-84
2023/12/24 00:30:41;;;;;;;;;;;8.90;99.90;;;;;;5104314;27;19931;-81
2023/12/24 00:33:07;;;;;;;;;;;8.90;99.90;;;;;;5109253;27;19927;-84
2023/12/24 00:35:34;;;;;;;;;;;8.90;99.90;;;;;;5090369;27;19927;-82
2023/12/24 00:37:59;;;;;;;;;;;8.90;99.90;;;;;;5105784;27;20022;-82
2023/12/24 00:40:25;;;;;;;;;;;8.90;99.90;;;;;;5107613;27;20086;-81
2023/12/24 00:42:51;;;;;;;;;;;8.90;99.90;;;;;;5098781;27;19927;-85
2023/12/24 00:45:17;;;;;;;;;;;8.90;99.90;;;;;;5104944;27;20020;-84
2023/12/24 00:47:42;;;;;;;;;;;8.90;99.90;;;;;;5104146;27;20035;-81
2023/12/24 00:50:08;;;;;;;;;;;8.90;99.90;;;;;;5096344;27;19928;-85
2023/12/24 00:52:37;;;;;;;;;;;8.90;99.90;;;;;;5107600;27;19924;-80
2023/12/24 00:55:03;;;;;;;;;;;8.90;99.90;;;;;;5107701;27;19932;-82
2023/12/24 00:57:29;;;;;;;;;;;8.90;99.90;;;;;;5098603;27;20022;-86
2023/12/24 00:59:54;;;;;;;;;;;8.90;99.90;;;;;;5081506;27;20394;-82
2023/12/24 01:02:20;;;;;;;;;;;8.90;99.90;;;;;;5106576;27;19927;-83
2023/12/24 01:04:46;;;;;;;;;;;8.90;99.90;;;;;;5107908;27;19978;-83
2023/12/24 01:07:12;;;;;;;;;;;8.90;99.90;;;;;;5111206;27;20550;-80
2023/12/24 01:09:38;;;;;;;;;;;8.90;99.90;;;;;;5110502;27;19931;-82
2023/12/24 01:12:10;;;;;;;;;;;8.90;99.90;;;;;;5125849;27;19927;-81
2023/12/24 01:14:36;;;;;;;;;;;8.90;99.90;;;;;;5107844;27;20396;-80
2023/12/24 01:17:01;;;;;;;;;;;8.90;99.90;;;;;;5093705;27;19922;-84
2023/12/24 01:19:27;;;;;;;;;;;8.90;99.90;;;;;;5106779;27;19932;-84
2023/12/24 01:21:55;;;;;;;;;;;8.90;99.90;;;;;;5101793;27;19965;-83
2023/12/24 01:24:21;;;;;;;;;;;8.90;99.90;;;;;;5108608;27;19927;-85
2023/12/24 01:26:48;;;;;;;;;;;8.90;99.90;;;;;;5104102;27;19935;-85
2023/12/24 01:29:13;;;;;;;;;;;8.90;99.90;;;;;;5104859;27;19977;-80
2023/12/24 01:31:39;;;;;;;;;;;8.90;99.90;;;;;;5106820;27;19931;-87
2023/12/24 01:34:05;;;;;;;;;;;8.90;99.90;;;;;;5102823;27;19934;-84
2023/12/24 01:36:30;;;;;;;;;;;8.90;99.90;;;;;;5103507;27;19938;-82
2023/12/24 01:38:56;;;;;;;;;;;8.90;99.90;;;;;;5102264;27;20126;-80
2023/12/24 01:41:21;;;;;;;;;;;8.90;99.90;;;;;;5094061;27;19927;-87
2023/12/24 01:43:48;;;;;;;;;;;8.90;99.90;;;;;;5105440;27;19928;-84
2023/12/24 01:46:16;;;;;;;;;;;8.90;99.90;;;;;;5101912;27;19932;-85
2023/12/24 01:48:42;;;;;;;;;;;8.90;99.90;;;;;;5105441;27;20022;-81
2023/12/24 01:51:08;;;;;;;;;;;8.90;99.90;;;;;;5126087;27;19927;-84
2023/12/24 01:53:33;;;;;;;;;;;8.90;99.90;;;;;;5092184;27;20380;-86
2023/12/24 01:56:01;;;;;;;;;;;8.90;99.90;;;;;;5100899;27;20434;-83
2023/12/24 01:58:27;;;;;;;;;;;8.90;99.90;;;;;;5106990;27;20395;-84
2023/12/24 02:00:53;;;;;;;;;;;9.00;99.90;;;;;;5102343;27;20899;-80
2023/12/24 02:03:19;;;;;;;;;;;9.00;99.90;;;;;;5091757;27;19930;-85
2023/12/24 02:05:48;;;;;;;;;;;8.90;99.90;;;;;;5087234;27;19927;-84
2023/12/24 02:08:21;;;;;;;;;;;8.90;99.90;;;;;;5068523;27;20018;-81
2023/12/24 02:10:50;;;;;;;;;;;9.00;99.90;;;;;;5120302;27;19927;-85
2023/12/24 02:13:16;;;;;;;;;;;9.00;99.90;;;;;;5121067;27;19931;-83
2023/12/24 02:15:44;;;;;;;;;;;9.00;99.90;;;;;;5097196;27;20277;-84
2023/12/24 02:18:10;;;;;;;;;;;9.00;99.90;;;;;;5104296;27;20027;-87
2023/12/24 02:20:36;;;;;;;;;;;9.00;99.90;;;;;;5083202;27;19931;-80
2023/12/24 02:23:02;;;;;;;;;;;9.00;99.90;;;;;;5106872;27;20237;-81
2023/12/24 02:25:28;;;;;;;;;;;9.00;99.90;;;;;;5113724;27;20423;-83
2023/12/24 02:28:15;;;;;;;;;;;9.00;99.90;;;;;;5104177;27;19962;-85
2023/12/24 02:30:42;;;;;;;;;;;9.00;99.90;;;;;;5107282;27;20025;-87
2023/12/24 02:33:09;;;;;;;;;;;8.90;99.90;;;;;;5108871;27;20696;-86
2023/12/24 02:35:36;;;;;;;;;;;9.00;99.90;;;;;;5102897;27;19923;-80
2023/12/24 02:38:01;;;;;;;;;;;9.00;99.90;;;;;;5120913;27;19923;-83
2023/12/24 02:40:27;;;;;;;;;;;8.90;99.90;;;;;;5104519;27;19928;-82
2023/12/24 02:42:53;;;;;;;;;;;9.00;99.90;;;;;;5090083;27;19931;-81
2023/12/24 02:45:18;;;;;;;;;;;8.90;99.90;;;;;;5095005;27;20013;-89
2023/12/24 02:47:44;;;;;;;;;;;8.90;99.90;;;;;;5102478;27;20373;-86
2023/12/24 02:50:10;;;;;;;;;;;8.90;99.90;;;;;;5082520;27;19931;-88
2023/12/24 02:52:35;;;;;;;;;;;8.90;99.90;;;;;;5087076;27;19956;-80
2023/12/24 02:55:01;;;;;;;;;;;8.90;99.90;;;;;;5099956;27;19989;-82
2023/12/24 02:57:29;;;;;;;;;;;9.00;99.90;;;;;;5119434;27;20025;-87
2023/12/24 02:59:54;;;;;;;;;;;8.90;99.90;;;;;;5107170;27;20010;-88
2023/12/24 03:02:20;;;;;;;;;;;8.90;99.90;;;;;;5125094;27;19931;-83
2023/12/24 03:04:46;;;;;;;;;;;8.90;99.90;;;;;;5092686;27;20021;-83
2023/12/24 03:07:12;;;;;;;;;;;8.90;99.90;;;;;;5107503;27;19959;-82
2023/12/24 03:09:38;;;;;;;;;;;9.00;99.90;;;;;;5109751;27;19956;-84
2023/12/24 03:12:04;;;;;;;;;;;9.00;99.90;;;;;;5108247;27;19924;-88
2023/12/24 03:14:30;;;;;;;;;;;8.90;99.90;;;;;;5104764;27;19927;-81
2023/12/24 03:16:56;;;;;;;;;;;9.00;99.90;;;;;;5107842;27;19934;-88
2023/12/24 03:19:21;;;;;;;;;;;9.00;99.90;;;;;;5106597;27;19973;-85
2023/12/24 03:21:47;;;;;;;;;;;9.00;99.90;;;;;;5108143;27;19965;-83
2023/12/24 03:24:12;;;;;;;;;;;9.00;99.90;;;;;;5103112;27;20030;-81
2023/12/24 03:26:38;;;;;;;;;;;9.30;99.90;;;;;;5093798;27;19934;-85
2023/12/24 03:29:05;;;;;;;;;;;9.00;99.90;;;;;;5106384;27;19923;-84
2023/12/24 03:31:30;;;;;;;;;;;9.00;99.90;;;;;;5104388;27;19939;-88
2023/12/24 03:33:56;;;;;;;;;;;9.00;99.90;;;;;;5093604;27;20782;-83
2023/12/24 03:36:22;;;;;;;;;;;9.00;99.90;;;;;;5097718;27;19923;-86
2023/12/24 03:38:48;;;;;;;;;;;9.00;99.90;;;;;;5110869;27;20435;-87
2023/12/24 03:41:16;;;;;;;;;;;9.00;99.90;;;;;;5107633;27;19931;-87
2023/12/24 03:43:42;;;;;;;;;;;9.10;99.90;;;;;;5089977;27;21652;-80
2023/12/24 03:46:07;;;;;;;;;;;9.00;99.90;;;;;;5100692;27;19988;-87
2023/12/24 03:48:35;;;;;;;;;;;9.00;99.90;;;;;;5104261;27;20510;-85
2023/12/24 03:51:01;;;;;;;;;;;9.00;99.90;;;;;;5098022;27;19936;-84
2023/12/24 03:53:27;;;;;;;;;;;9.00;99.90;;;;;;5098278;27;19931;-86
2023/12/24 03:55:53;;;;;;;;;;;9.10;99.90;;;;;;5108356;27;19923;-84
2023/12/24 03:58:19;;;;;;;;;;;9.10;99.90;;;;;;5102290;27;19927;-84
2023/12/24 04:00:44;;;;;;;;;;;9.10;99.90;;;;;;5097576;27;19942;-79
2023/12/24 04:03:10;;;;;;;;;;;9.10;99.90;;;;;;5109731;27;20014;-86
2023/12/24 04:05:36;;;;;;;;;;;9.10;99.90;;;;;;5105087;27;19951;-85
2023/12/24 04:08:01;;;;;;;;;;;9.10;99.90;;;;;;5082761;27;19926;-84
2023/12/24 04:10:27;;;;;;;;;;;9.10;99.90;;;;;;5095503;27;19946;-84
2023/12/24 04:12:52;;;;;;;;;;;9.20;99.90;;;;;;5107104;27;19927;-83
2023/12/24 04:15:18;;;;;;;;;;;9.10;99.90;;;;;;5104891;27;19952;-83
2023/12/24 04:17:44;;;;;;;;;;;9.10;99.90;;;;;;5096434;27;19927;-79
2023/12/24 04:20:10;;;;;;;;;;;9.20;99.90;;;;;;5096030;27;19957;-79
2023/12/24 04:22:35;;;;;;;;;;;9.20;99.90;;;;;;5105257;27;19930;-81
2023/12/24 04:25:01;;;;;;;;;;;9.20;99.90;;;;;;5106832;27;19923;-84
2023/12/24 04:27:26;;;;;;;;;;;9.20;99.90;;;;;;5105415;27;20020;-80
2023/12/24 04:29:52;;;;;;;;;;;9.20;99.90;;;;;;5108363;27;19934;-85
2023/12/24 04:32:21;;;;;;;;;;;9.20;99.90;;;;;;5110450;27;19923;-84
2023/12/24 04:34:46;;;;;;;;;;;9.20;99.90;;;;;;5113826;27;19923;-85
2023/12/24 04:37:13;;;;;;;;;;;9.30;99.90;;;;;;5116399;27;20369;-78
2023/12/24 04:39:38;;;;;;;;;;;9.30;99.90;;;;;;5115898;27;19927;-87
2023/12/24 04:42:04;;;;;;;;;;;9.30;99.90;;;;;;5090389;27;20373;-85
2023/12/24 04:44:30;;;;;;;;;;;9.30;99.90;;;;;;5110686;27;20778;-86
2023/12/24 04:46:55;;;;;;;;;;;9.30;99.90;;;;;;5104373;27;20522;-80
2023/12/24 04:49:21;;;;;;;;;;;9.30;99.90;;;;;;5077852;27;19977;-81
2023/12/24 04:51:47;;;;;;;;;;;9.40;99.90;;;;;;5107799;27;20324;-83
2023/12/24 04:54:12;;;;;;;;;;;9.40;99.90;;;;;;5105800;27;19927;-78
2023/12/24 04:56:38;;;;;;;;;;;9.40;99.90;;;;;;5098636;27;19979;-83
2023/12/24 04:59:03;;;;;;;;;;;9.40;99.90;;;;;;5103249;27;19954;-78
2023/12/24 05:01:30;;;;;;;;;;;9.40;99.90;;;;;;5111289;27;19934;-82
2023/12/24 05:03:56;;;;;;;;;;;10.60;99.90;;;;;;5105520;27;19927;-83
2023/12/24 05:06:21;;;;;;;;;;;9.40;99.90;;;;;;5090208;27;19927;-86
2023/12/24 05:08:47;;;;;;;;;;;9.40;99.90;;;;;;5103264;27;19931;-85
2023/12/24 05:11:13;;;;;;;;;;;9.40;99.90;;;;;;5104396;27;20634;-81
2023/12/24 05:13:38;;;;;;;;;;;9.50;99.90;;;;;;5104476;27;19930;-86
2023/12/24 05:16:05;;;;;;;;;;;9.50;99.90;;;;;;5106466;27;20340;-85
2023/12/24 05:18:33;;;;;;;;;;;9.50;99.90;;;;;;5073369;27;19993;-87
2023/12/24 05:20:59;;;;;;;;;;;9.50;99.90;;;;;;5091845;27;19930;-83
2023/12/24 05:23:25;;;;;;;;;;;9.60;99.90;;;;;;5109738;27;20250;-86
2023/12/24 05:25:51;;;;;;;;;;;9.50;99.90;;;;;;5091455;27;19927;-83
2023/12/24 05:28:17;;;;;;;;;;;9.50;99.90;;;;;;5105349;27;22400;-79
2023/12/24 05:30:43;;;;;;;;;;;9.60;99.90;;;;;;5091802;27;19935;-85
2023/12/24 05:33:09;;;;;;;;;;;9.60;99.90;;;;;;5091804;27;19923;-84
2023/12/24 05:35:35;;;;;;;;;;;9.60;99.90;;;;;;5101508;27;20401;-83
2023/12/24 05:38:00;;;;;;;;;;;9.60;99.90;;;;;;5091958;27;20285;-78
2023/12/24 05:40:26;;;;;;;;;;;9.60;99.90;;;;;;5100155;27;20384;-83
2023/12/24 05:42:52;;;;;;;;;;;9.60;99.90;;;;;;5097428;27;19927;-79
2023/12/24 05:45:17;;;;;;;;;;;9.60;99.90;;;;;;5125973;27;19927;-85
2023/12/24 05:47:43;;;;;;;;;;;9.70;99.90;;;;;;5106459;27;19928;-82
2023/12/24 05:50:09;;;;;;;;;;;9.70;99.90;;;;;;5122568;27;19931;-80
2023/12/24 05:52:35;;;;;;;;;;;9.70;99.90;;;;;;5108305;27;20470;-84
2023/12/24 05:55:01;;;;;;;;;;;9.70;99.90;;;;;;5101012;27;19930;-84
2023/12/24 05:57:30;;;;;;;;;;;9.70;99.90;;;;;;5125395;27;20293;-84
2023/12/24 05:59:56;;;;;;;;;;;9.70;99.90;;;;;;5105223;27;19923;-83
2023/12/24 06:02:22;;;;;;;;;;;9.70;99.90;;;;;;5099793;27;19934;-83
2023/12/24 06:04:47;;;;;;;;;;;9.70;99.90;;;;;;5093736;27;19928;-82
2023/12/24 06:07:13;;;;;;;;;;;9.80;99.90;;;;;;5103785;27;19931;-81
2023/12/24 06:09:38;;;;;;;;;;;9.80;99.90;;;;;;5105671;27;19935;-81
2023/12/24 06:12:04;;;;;;;;;;;9.70;99.90;;;;;;5101543;27;19923;-80
2023/12/24 06:14:30;;;;;;;;;;;9.80;99.90;;;;;;5092791;27;20434;-80
2023/12/24 06:16:56;;;;;;;;;;;9.80;99.90;;;;;;5102905;27;19928;-84
2023/12/24 06:19:22;;;;;;;;;;;9.80;99.90;;;;;;5084712;27;19938;-84
2023/12/24 06:21:47;;;;;;;;;;;9.90;99.90;;;;;;5108221;27;20277;-78
2023/12/24 06:24:13;;;;;;;;;;;9.80;99.90;;;;;;5104119;27;19938;-81
2023/12/24 06:26:39;;;;;;;;;;;9.90;99.90;;;;;;5098011;27;19926;-84
2023/12/24 06:29:04;;;;;;;;;;;9.90;99.90;;;;;;5106858;27;19983;-79
2023/12/24 06:31:30;;;;;;;;;;;9.90;99.90;;;;;;5096440;27;19987;-83
2023/12/24 06:33:56;;;;;;;;;;;9.90;99.90;;;;;;5093293;27;20453;-81
2023/12/24 06:36:21;;;;;;;;;;;10.00;99.90;;;;;;5086506;27;20274;-87
2023/12/24 06:38:47;;;;;;;;;;;10.00;99.90;;;;;;5085114;27;19933;-83
2023/12/24 06:41:13;;;;;;;;;;;10.00;99.90;;;;;;5090063;27;19933;-78
2023/12/24 06:43:38;;;;;;;;;;;10.00;99.90;;;;;;5079108;27;20013;-80
2023/12/24 06:46:11;;;;;;;;;;;10.00;99.90;;;;;;5110562;27;19978;-85
2023/12/24 06:48:39;;;;;;;;;;;10.00;99.90;;;;;;5105747;27;19923;-85
2023/12/24 06:51:04;;;;;;;;;;;10.00;99.90;;;;;;5106228;27;19935;-84
2023/12/24 06:53:30;;;;;;;;;;;10.00;99.90;;;;;;5082860;27;19927;-85
2023/12/24 06:55:55;;;;;;;;;;;10.00;99.90;;;;;;5124534;27;19967;-85
2023/12/24 06:58:21;;;;;;;;;;;10.00;99.90;;;;;;5113619;27;19974;-85
2023/12/24 07:00:47;;;;;;;;;;;10.00;99.90;;;;;;5110504;27;20369;-79
2023/12/24 07:03:12;;;;;;;;;;;10.00;99.90;;;;;;5110967;27;20378;-81
2023/12/24 07:05:38;;;;;;;;;;;10.00;99.90;;;;;;5111140;27;19927;-80
2023/12/24 07:08:07;;;;;;;;;;;10.00;99.90;;;;;;5116501;27;19979;-83
2023/12/24 07:10:34;;;;;;;;;;;10.00;99.90;;;;;;5113068;27;20456;-82
2023/12/24 07:13:00;;;;;;;;;;;10.00;99.90;;;;;;5107911;27;20263;-84
2023/12/24 07:15:26;;;;;;;;;;;10.00;99.90;;;;;;5099367;27;20009;-81
2023/12/24 07:17:51;;;;;;;;;;;10.00;99.90;;;;;;5095611;27;20022;-82
2023/12/24 07:20:17;;;;;;;;;;;10.00;99.90;;;;;;5115944;27;19938;-79
2023/12/24 07:22:43;;;;;;;;;;;10.00;99.90;;;;;;5099931;27;19989;-82
2023/12/24 07:25:10;;;;;;;;;;;10.00;99.90;;;;;;5085727;27;19934;-83
2023/12/24 07:27:36;;;;;;;;;;;10.00;99.90;;;;;;5105520;27;19927;-80
2023/12/24 07:30:02;;;;;;;;;;;10.00;99.90;;;;;;5114994;27;20899;-83
2023/12/24 07:32:27;;;;;;;;;;;10.00;99.90;;;;;;5116471;27;19945;-79
2023/12/24 07:34:55;;;;;;;;;;;10.00;99.90;;;;;;5107099;27;20016;-85
2023/12/24 07:37:21;;;;;;;;;;;10.00;99.90;;;;;;5112442;27;20374;-87
2023/12/24 07:39:46;;;;;;;;;;;10.00;99.90;;;;;;5108293;27;19937;-80
2023/12/24 07:42:12;;;;;;;;;;;10.10;99.90;;;;;;5126625;27;19928;-82
2023/12/24 07:44:37;;;;;;;;;;;10.00;99.90;;;;;;5099094;27;19927;-88
2023/12/24 07:47:03;;;;;;;;;;;10.10;99.90;;;;;;5098353;27;20089;-85
2023/12/24 07:49:29;;;;;;;;;;;10.00;99.90;;;;;;5112499;27;20007;-81
2023/12/24 07:51:55;;;;;;;;;;;10.00;99.90;;;;;;5110258;27;19991;-80
2023/12/24 07:54:20;;;;;;;;;;;11.10;99.90;;;;;;5092760;27;19923;-81
2023/12/24 07:56:46;;;;;;;;;;;10.00;99.90;;;;;;5116690;27;19977;-85
2023/12/24 07:59:11;;;;;;;;;;;10.00;99.90;;;;;;5111461;27;19931;-84
2023/12/24 08:01:40;;;;;;;;;;;10.00;99.90;;;;;;5113343;27;20054;-87
2023/12/24 08:04:06;;;;;;;;;;;10.00;99.90;;;;;;5107291;27;20434;-82
2023/12/24 08:06:31;;;;;;;;;;;10.00;99.90;;;;;;5112381;27;19931;-87
2023/12/24 08:08:57;;;;;;;;;;;10.10;99.90;;;;;;5099812;27;19923;-87
2023/12/24 08:11:23;;;;;;;;;;;10.10;99.90;;;;;;5094881;27;19927;-86
2023/12/24 08:13:48;;;;;;;;;;;10.10;99.90;;;;;;5114087;27;19974;-79
2023/12/24 08:16:14;;;;;;;;;;;10.10;99.90;;;;;;5108580;27;19949;-87
2023/12/24 08:18:40;;;;;;;;;;;10.20;99.90;;;;;;5108955;27;20062;-86
2023/12/24 08:21:10;;;;;;;;;;;10.20;99.90;;;;;;5112155;27;19972;-80
2023/12/24 08:23:36;;;;;;;;;;;10.70;99.90;;;;;;5118842;27;19931;-78
2023/12/24 08:26:03;;;;;;;;;;;10.10;99.90;;;;;;5102228;27;19930;-85
2023/12/24 08:28:28;;;;;;;;;;;10.10;99.90;;;;;;5102409;27;19952;-84
2023/12/24 08:30:54;;;;;;;;;;;10.10;99.90;;;;;;5119208;27;19927;-88
2023/12/24 08:33:20;;;;;;;;;;;10.10;99.90;;;;;;5108017;27;20026;-83
2023/12/24 08:35:48;;;;;;;;;;;10.10;99.90;;;;;;5128459;27;19927;-82
2023/12/24 08:38:14;;;;;;;;;;;10.10;99.90;;;;;;5099886;27;19946;-85
2023/12/24 08:40:40;;;;;;;;;;;10.10;99.90;;;;;;5129979;27;20293;-87
2023/12/24 08:43:05;;;;;;;;;;;10.10;99.90;;;;;;5111643;27;20508;-82
2023/12/24 08:45:31;;;;;;;;;;;10.10;99.90;;;;;;5114005;27;19994;-82
2023/12/24 08:47:57;;;;;;;;;;;10.20;99.90;;;;;;5110747;27;19926;-83
2023/12/24 08:50:23;;;;;;;;;;;10.20;99.90;;;;;;5117113;27;20370;-79
2023/12/24 08:52:49;;;;;;;;;;;10.20;99.90;;;;;;5109694;27;19927;-85
2023/12/24 08:55:15;;;;;;;;;;;10.10;99.90;;;;;;5114350;27;19934;-85
2023/12/24 08:57:41;;;;;;;;;;;10.20;99.90;;;;;;5118031;27;19938;-79
2023/12/24 09:00:11;;;;;;;;;;;10.20;99.90;;;;;;5116912;27;19927;-83
2023/12/24 09:02:38;;;;;;;;;;;10.20;99.90;;;;;;5107634;27;20461;-81
2023/12/24 09:05:04;;;;;;;;;;;10.20;99.90;;;;;;5097265;27;19974;-81
2023/12/24 09:07:30;;;;;;;;;;;10.20;99.90;;;;;;5100466;27;19928;-87
2023/12/24 09:09:55;;;;;;;;;;;10.20;99.90;;;;;;5092225;27;19989;-85
2023/12/24 09:12:21;;;;;;;;;;;10.20;99.90;;;;;;5109562;27;19937;-85
2023/12/24 09:14:47;;;;;;;;;;;10.20;99.90;;;;;;5102453;27;19953;-82
2023/12/24 09:17:12;;;;;;;;;;;10.20;99.90;;;;;;5114163;27;19965;-82
2023/12/24 09:19:38;;;;;;;;;;;10.30;99.90;;;;;;5113124;27;19927;-87
2023/12/24 09:22:03;;;;;;;;;;;10.30;99.90;;;;;;5108149;27;19927;-86
2023/12/24 09:24:29;;;;;;;;;;;10.30;99.90;;;;;;5115806;27;19934;-85
2023/12/24 09:26:55;;;;;;;;;;;10.30;99.90;;;;;;5131659;27;19923;-86
2023/12/24 09:29:21;;;;;;;;;;;10.30;99.90;;;;;;5098914;27;19927;-85
2023/12/24 09:31:47;;;;;;;;;;;10.30;99.90;;;;;;5122835;27;19930;-85
2023/12/24 09:34:12;;;;;;;;;;;10.30;99.90;;;;;;5102994;27;19982;-83
2023/12/24 09:36:38;;;;;;;;;;;10.30;99.90;;;;;;5106555;27;19982;-86
2023/12/24 09:39:04;;;;;;;;;;;10.30;99.90;;;;;;5111399;27;20039;-82
2023/12/24 09:41:30;;;;;;;;;;;10.40;99.90;;;;;;5103868;27;20343;-87
2023/12/24 09:43:56;;;;;;;;;;;10.40;99.90;;;;;;5107255;27;20055;-86
2023/12/24 09:46:22;;;;;;;;;;;10.40;99.90;;;;;;5092468;27;19928;-83
2023/12/24 09:48:47;;;;;;;;;;;10.40;99.90;;;;;;5111122;27;19977;-83
2023/12/24 09:51:13;;;;;;;;;;;10.40;99.90;;;;;;5107930;27;19928;-84
2023/12/24 09:53:44;;;;;;;;;;;10.40;99.90;;;;;;5104231;27;19972;-83
2023/12/24 09:56:10;;;;;;;;;;;10.40;99.90;;;;;;5107070;27;19977;-83
2023/12/24 09:58:35;;;;;;;;;;;10.40;99.90;;;;;;5091757;27;20434;-80
2023/12/24 10:01:01;;;;;;;;;;;10.40;99.90;;;;;;5106434;27;19950;-84
2023/12/24 10:03:27;;;;;;;;;;;10.40;99.90;;;;;;5091957;27;20404;-80
2023/12/24 10:06:03;;;;;;;;;;;10.40;99.90;;;;;;5098794;27;20124;-83
2023/12/24 10:08:29;;;;;;;;;;;10.40;99.90;;;;;;5100185;27;20014;-81
2023/12/24 10:10:54;;;;;;;;;;;10.40;99.90;;;;;;5100339;27;20060;-86
2023/12/24 10:13:20;;;;;;;;;;;10.40;99.90;;;;;;5107281;27;19923;-83
2023/12/24 10:15:46;;;;;;;;;;;10.40;99.90;;;;;;5110942;27;20705;-85
2023/12/24 10:18:17;;;;;;;;;;;10.40;99.90;;;;;;5071258;27;20022;-81
2023/12/24 10:20:42;;;;;;;;;;;10.40;99.90;;;;;;5109726;27;19976;-80
2023/12/24 10:23:09;;;;;;;;;;;10.40;99.90;;;;;;5103267;27;19948;-87
2023/12/24 10:25:35;;;;;;;;;;;10.40;99.90;;;;;;5117978;27;19965;-83
2023/12/24 10:28:07;;;;;;;;;;;10.30;99.90;;;;;;5112864;27;19932;-85
2023/12/24 10:30:33;;;;;;;;;;;10.40;99.90;;;;;;5100788;27;19935;-82
2023/12/24 10:33:12;;;;;;;;;;;10.30;99.90;;;;;;5097476;27;19965;-84
2023/12/24 10:35:38;;;;;;;;;;;10.40;99.90;;;;;;5098813;27;20402;-87
2023/12/24 10:38:06;;;;;;;;;;;10.30;99.90;;;;;;5102155;27;20408;-82
2023/12/24 10:40:32;;;;;;;;;;;10.30;99.90;;;;;;5115138;27;19953;-87
2023/12/24 10:42:57;;;;;;;;;;;10.30;99.90;;;;;;5105878;27;20285;-85
2023/12/24 10:45:23;;;;;;;;;;;10.30;99.90;;;;;;5093606;27;19927;-86
2023/12/24 10:47:50;;;;;;;;;;;10.40;99.90;;;;;;5129647;27;19927;-83
2023/12/24 10:50:16;;;;;;;;;;;10.40;99.90;;;;;;5104219;27;20354;-81
2023/12/24 10:52:41;;;;;;;;;;;10.40;99.90;;;;;;5104207;27;19933;-82
2023/12/24 10:55:10;;;;;;;;;;;10.40;99.90;;;;;;5111842;27;19930;-87
2023/12/24 10:57:41;;;;;;;;;;;10.40;99.90;;;;;;5107285;27;19965;-85
2023/12/24 11:00:09;;;;;;;;;;;10.50;99.90;;;;;;5102962;27;19923;-86
2023/12/24 11:02:42;;;;;;;;;;;10.50;99.90;;;;;;5098072;27;19927;-85
2023/12/24 11:05:08;;;;;;;;;;;10.50;99.90;;;;;;5102368;27;19973;-86
2023/12/24 11:07:34;;;;;;;;;;;10.60;99.90;;;;;;5110616;27;20400;-84
2023/12/24 11:10:00;;;;;;;;;;;10.60;99.90;;;;;;5104314;27;20429;-80
2023/12/24 11:12:29;;;;;;;;;;;10.60;99.90;;;;;;5109927;27;20686;-85
2023/12/24 11:14:54;;;;;;;;;;;10.70;99.90;;;;;;5090791;27;20002;-81
2023/12/24 11:17:38;;;;;;;;;;;10.70;99.90;;;;;;5108541;27;19992;-82
2023/12/24 11:20:16;;;;;;;;;;;10.70;99.90;;;;;;5114074;27;20389;-82
2023/12/24 11:23:01;;;;;;;;;;;10.70;99.90;;;;;;5130823;27;20520;-80
2023/12/24 11:25:34;;;;;;;;;;;10.70;99.90;;;;;;5108397;27;19946;-86
2023/12/24 11:28:00;;;;;;;;;;;10.70;99.90;;;;;;5109979;27;19931;-83
2023/12/24 11:30:26;;;;;;;;;;;10.70;99.90;;;;;;5103921;27;19934;-84
2023/12/24 11:32:51;;;;;;;;;;;10.70;99.90;;;;;;5128972;27;20347;-86
2023/12/24 11:35:36;;;;;;;;;;;10.70;99.90;;;;;;5097319;27;20034;-79
2023/12/24 11:38:27;;;;;;;;;;;10.70;99.90;;;;;;5107720;27;19934;-87
2023/12/24 11:41:11;;;;;;;;;;;10.70;99.90;;;;;;5094396;27;19924;-85
2023/12/24 11:43:37;;;;;;;;;;;10.70;99.90;;;;;;5109190;27;19927;-88
2023/12/24 11:46:04;;;;;;;;;;;10.70;99.90;;;;;;5113887;27;19950;-87
2023/12/24 11:48:32;;;;;;;;;;;10.70;99.90;;;;;;5100420;27;19948;-84
2023/12/24 11:51:03;;;;;;;;;;;10.70;99.90;;;;;;5108424;27;20461;-84
2023/12/24 11:53:33;;;;;;;;;;;10.70;99.90;;;;;;5114409;27;19927;-86
2023/12/24 11:56:20;;;;;;;;;;;10.70;99.90;;;;;;5114074;27;19931;-82
2023/12/24 11:58:48;;;;;;;;;;;10.70;99.90;;;;;;5117406;27;19937;-85
2023/12/24 12:01:24;;;;;;;;;;;10.70;99.90;;;;;;5112471;27;19939;-83
2023/12/24 12:04:03;;;;;;;;;;;10.80;99.90;;;;;;5113629;27;20047;-86
2023/12/24 12:06:36;;;;;;;;;;;10.80;99.90;;;;;;5100691;27;19989;-81
2023/12/24 12:09:06;;;;;;;;;;;10.80;99.90;;;;;;5094769;27;20393;-84
2023/12/24 12:11:32;;;;;;;;;;;10.80;99.90;;;;;;5114054;27;19974;-83
2023/12/24 12:14:01;;;;;;;;;;;10.80;99.90;;;;;;5117591;27;19923;-84
2023/12/24 12:16:27;;;;;;;;;;;10.80;99.90;;;;;;5095917;27;20404;-85
2023/12/24 12:18:52;;;;;;;;;;;10.80;99.90;;;;;;5104804;27;19923;-84
2023/12/24 12:21:19;;;;;;;;;;;10.90;99.90;;;;;;5113688;27;19922;-84
2023/12/24 12:23:44;;;;;;;;;;;10.90;99.90;;;;;;5102351;27;19991;-83
2023/12/24 12:26:10;;;;;;;;;;;10.80;99.90;;;;;;5102436;27;20424;-82
2023/12/24 12:28:36;;;;;;;;;;;11.00;99.90;;;;;;5111454;27;19980;-81
2023/12/24 12:31:02;;;;;;;;;;;11.00;99.90;;;;;;5112338;27;20526;-84
2023/12/24 12:33:28;;;;;;;;;;;10.90;99.90;;;;;;5112163;27;19927;-81
2023/12/24 12:35:54;;;;;;;;;;;10.90;99.90;;;;;;5101876;27;20026;-81
2023/12/24 12:38:26;;;;;;;;;;;10.90;99.90;;;;;;5114715;27;22462;-81
2023/12/24 12:40:52;;;;;;;;;;;10.60;99.90;;;;;;5081752;27;19931;-83
2023/12/24 12:43:19;;;;;;;;;;;10.90;99.90;;;;;;5112365;27;19931;-80
2023/12/24 12:45:45;;;;;;;;;;;10.90;99.90;;;;;;5114309;27;19979;-84
2023/12/24 12:48:10;;;;;;;;;;;10.90;99.90;;;;;;5108594;27;20270;-86
2023/12/24 12:50:36;;;;;;;;;;;10.90;99.90;;;;;;5116256;27;19965;-79
2023/12/24 12:53:02;;;;;;;;;;;10.90;99.90;;;;;;5096775;27;20040;-84
2023/12/24 12:55:29;;;;;;;;;;;10.90;99.90;;;;;;5120034;27;19927;-82
2023/12/24 12:57:56;;;;;;;;;;;10.90;99.90;;;;;;5119483;27;19933;-84
2023/12/24 13:00:22;;;;;;;;;;;10.90;99.90;;;;;;5110179;27;19927;-82
2023/12/24 13:02:49;;;;;;;;;;;10.90;99.90;;;;;;5096178;27;19938;-81
2023/12/24 13:05:31;;;;;;;;;;;10.90;99.90;;;;;;5106174;27;20018;-85
2023/12/24 13:08:11;;;;;;;;;;;10.80;99.90;;;;;;5109313;27;20119;-83
2023/12/24 13:10:38;;;;;;;;;;;10.90;99.90;;;;;;5090349;27;19930;-85
2023/12/24 13:13:08;;;;;;;;;;;10.80;99.90;;;;;;5113197;27;19927;-84
2023/12/24 13:15:34;;;;;;;;;;;10.80;99.90;;;;;;5113973;27;19931;-87
2023/12/24 13:18:32;;;;;;;;;;;10.80;99.90;;;;;;5107154;27;19971;-81
2023/12/24 13:21:03;;;;;;;;;;;10.80;99.90;;;;;;5094874;27;20385;-80
2023/12/24 13:23:30;;;;;;;;;;;10.80;99.90;;;;;;5111994;27;19935;-84
2023/12/24 13:25:56;;;;;;;;;;;10.80;99.90;;;;;;5107584;27;19970;-79
2023/12/24 13:28:22;;;;;;;;;;;10.70;99.90;;;;;;5091615;27;20086;-80
2023/12/24 13:30:48;;;;;;;;;;;10.70;99.90;;;;;;5078044;27;19980;-84
2023/12/24 13:33:14;;;;;;;;;;;10.70;99.90;;;;;;5080341;27;19927;-82
2023/12/24 13:35:42;;;;;;;;;;;10.70;99.90;;;;;;5124345;27;19938;-84
2023/12/24 13:38:09;;;;;;;;;;;10.70;99.90;;;;;;5106451;27;20751;-83
2023/12/24 13:40:36;;;;;;;;;;;10.70;99.90;;;;;;5115453;27;20032;-83
2023/12/24 13:43:03;;;;;;;;;;;10.60;99.90;;;;;;5106627;27;20391;-84
2023/12/24 13:45:29;;;;;;;;;;;10.60;99.90;;;;;;5113350;27;20297;-82
2023/12/24 13:47:54;;;;;;;;;;;10.60;99.90;;;;;;5126203;27;19934;-80
2023/12/24 13:50:20;;;;;;;;;;;10.60;99.90;;;;;;5091367;27;19927;-84
2023/12/24 13:52:46;;;;;;;;;;;10.50;99.90;;;;;;5093530;27;19928;-84
2023/12/24 13:55:11;;;;;;;;;;;10.50;99.90;;;;;;5110909;27;19931;-85
2023/12/24 13:57:37;;;;;;;;;;;10.50;99.90;;;;;;5114407;27;19931;-80
2023/12/24 14:00:03;;;;;;;;;;;10.50;99.90;;;;;;5111778;27;19927;-83
2023/12/24 14:02:30;;;;;;;;;;;10.50;99.90;;;;;;5096438;27;19931;-82
2023/12/24 14:04:56;;;;;;;;;;;10.50;99.90;;;;;;5088475;27;21143;-81
2023/12/24 14:07:21;;;;;;;;;;;10.50;99.90;;;;;;5084097;27;19968;-83
2023/12/24 14:09:48;;;;;;;;;;;11.00;99.90;;;;;;5097518;27;19931;-83
2023/12/24 14:12:14;;;;;;;;;;;10.50;99.90;;;;;;5097589;27;19934;-84
2023/12/24 14:14:40;;;;;;;;;;;10.50;99.90;;;;;;5100847;27;20100;-84
2023/12/24 14:17:06;;;;;;;;;;;10.60;99.90;;;;;;5106233;27;20523;-80
2023/12/24 14:19:31;;;;;;;;;;;10.60;99.90;;;;;;5083318;27;19928;-84
2023/12/24 14:21:57;;;;;;;;;;;10.60;99.90;;;;;;5095453;27;20274;-82